sensor_id;sensor_type;location;lat;lon;timestamp;temperature;humidity
4699;DHT22;33708;49.466;11.176;2023-07-20T00:02:20;17.90;1.00
4699;DHT22;33708;49.466;11.176;2023-07-20T00:04:46;17.90;1.00
4699;DHT22;33708;49.466;11.176;2023-07-20T00:07:12;18.10;1.00
4699;DHT22;33708;49.466;11.176;2023-07-20T00:09:37;18.20;1.00
4699;DHT22;33708;49.466;11.176;2023-07-20T00:12:15;18.10;1.00
4699;DHT22;33708;49.466;11.176;2023-07-20T00:14:46;16.10;1.00
4699;DHT22;33708;49.466;11.176;2023-07-20T00:17:15;19.00;1.00
4699;DHT22;33708;49.466;11.176;2023-07-20T00:19:41;18.10;1.00
4699;DHT22;33708;49.466;11.176;2023-07-20T00:22:09;18.10;1.00
4699;DHT22;33708;49.466;11.176;2023-07-20T00:24:36;18.20;1.00
4699;DHT22;33708;49.466;11.176;2023-07-20T00:27:09;18.10;1.00
4699;DHT22;33708;49.466;11.176;2023-07-20T00:29:38;18.10;1.00
4699;DHT22;33708;49.466;11.176;2023-07-20T00:32:10;17.80;1.00
4699;DHT22;33708;49.466;11.176;2023-07-20T00:34:36;18.60;1.00
4699;DHT22;33708;49.466;11.176;2023-07-20T00:37:04;17.90;1.00
4699;DHT22;33708;49.466;11.176;2023-07-20T00:39:39;17.70;1.00
4699;DHT22;33708;49.466;11.176;2023-07-20T00:42:08;18.10;1.00
4699;DHT22;33708;49.466;11.176;2023-07-20T00:44:39;17.90;1.00
4699;DHT22;33708;49.466;11.176;2023-07-20T00:47:26;18.10;1.00
4699;DHT22;33708;49.466;11.176;2023-07-20T00:49:52;17.90;1.00
4699;DHT22;33708;49.466;11.176;2023-07-20T00:52:22;18.10;1.00
4699;DHT22;33708;49.466;11.176;2023-07-20T00:54:49;17.50;1.00
4699;DHT22;33708;49.466;11.176;2023-07-20T00:59:43;17.30;1.00
4699;DHT22;33708;49.466;11.176;2023-07-20T01:02:09;17.10;1.00
4699;DHT22;33708;49.466;11.176;2023-07-20T01:04:35;17.20;1.00
4699;DHT22;33708;49.466;11.176;2023-07-20T01:07:22;17.30;1.00
4699;DHT22;33708;49.466;11.176;2023-07-20T01:09:56;17.40;1.00
4699;DHT22;33708;49.466;11.176;2023-07-20T01:12:40;17.20;1.00
4699;DHT22;33708;49.466;11.176;2023-07-20T01:15:07;17.00;1.00
4699;DHT22;33708;49.466;11.176;2023-07-20T01:17:33;17.00;1.00
4699;DHT22;33708;49.466;11.176;2023-07-20T01:19:59;17.00;1.00
4699;DHT22;33708;49.466;11.176;2023-07-20T01:22:34;17.00;1.00
4699;DHT22;33708;49.466;11.176;2023-07-20T01:33:17;17.20;1.00
4699;DHT22;33708;49.466;11.176;2023-07-20T01:35:47;17.20;1.00
4699;DHT22;33708;49.466;11.176;2023-07-20T01:38:14;17.30;1.00
4699;DHT22;33708;49.466;11.176;2023-07-20T01:40:40;17.20;1.00
4699;DHT22;33708;49.466;11.176;2023-07-20T01:43:06;17.10;1.00
4699;DHT22;33708;49.466;11.176;2023-07-20T01:45:32;16.90;1.00
4699;DHT22;33708;49.466;11.176;2023-07-20T01:47:57;16.70;1.00
4699;DHT22;33708;49.466;11.176;2023-07-20T01:50:23;16.60;1.00
4699;DHT22;33708;49.466;11.176;2023-07-20T01:52:48;16.60;1.00
4699;DHT22;33708;49.466;11.176;2023-07-20T01:55:14;16.50;1.00
4699;DHT22;33708;49.466;11.176;2023-07-20T01:57:40;16.60;1.00
4699;DHT22;33708;49.466;11.176;2023-07-20T02:00:06;16.80;1.00
4699;DHT22;33708;49.466;11.176;2023-07-20T02:02:32;16.90;1.00
4699;DHT22;33708;49.466;11.176;2023-07-20T02:04:57;16.90;1.00
4699;DHT22;33708;49.466;11.176;2023-07-20T02:07:23;16.90;1.00
4699;DHT22;33708;49.466;11.176;2023-07-20T02:09:49;17.20;1.00
4699;DHT22;33708;49.466;11.176;2023-07-20T02:12:14;17.30;1.00
4699;DHT22;33708;49.466;11.176;2023-07-20T02:14:40;17.40;1.00
4699;DHT22;33708;49.466;11.176;2023-07-20T02:17:06;17.30;1.00
4699;DHT22;33708;49.466;11.176;2023-07-20T02:19:31;17.40;1.00
4699;DHT22;33708;49.466;11.176;2023-07-20T02:21:57;17.50;1.00
4699;DHT22;33708;49.466;11.176;2023-07-20T02:24:23;17.60;1.00
4699;DHT22;33708;49.466;11.176;2023-07-20T02:26:50;17.70;1.00
4699;DHT22;33708;49.466;11.176;2023-07-20T02:29:16;17.50;1.00
4699;DHT22;33708;49.466;11.176;2023-07-20T02:31:41;17.50;1.00
4699;DHT22;33708;49.466;11.176;2023-07-20T02:34:08;17.50;1.00
4699;DHT22;33708;49.466;11.176;2023-07-20T02:36:34;17.80;1.00
4699;DHT22;33708;49.466;11.176;2023-07-20T02:39:00;17.70;1.00
4699;DHT22;33708;49.466;11.176;2023-07-20T02:41:30;17.80;1.00
4699;DHT22;33708;49.466;11.176;2023-07-20T02:43:55;17.90;1.00
4699;DHT22;33708;49.466;11.176;2023-07-20T02:46:22;17.90;1.00
4699;DHT22;33708;49.466;11.176;2023-07-20T02:48:47;18.00;1.00
4699;DHT22;33708;49.466;11.176;2023-07-20T02:51:13;18.10;1.00
4699;DHT22;33708;49.466;11.176;2023-07-20T02:53:39;18.20;1.00
4699;DHT22;33708;49.466;11.176;2023-07-20T02:56:04;18.10;1.00
4699;DHT22;33708;49.466;11.176;2023-07-20T02:58:30;17.80;1.00
4699;DHT22;33708;49.466;11.176;2023-07-20T03:00:56;17.60;1.00
4699;DHT22;33708;49.466;11.176;2023-07-20T03:03:22;17.80;1.00
4699;DHT22;33708;49.466;11.176;2023-07-20T03:05:47;18.00;1.00
4699;DHT22;33708;49.466;11.176;2023-07-20T03:08:19;18.10;1.00
4699;DHT22;33708;49.466;11.176;2023-07-20T03:10:45;18.10;1.00
4699;DHT22;33708;49.466;11.176;2023-07-20T03:13:11;18.00;1.00
4699;DHT22;33708;49.466;11.176;2023-07-20T03:15:36;17.90;1.00
4699;DHT22;33708;49.466;11.176;2023-07-20T03:18:02;17.70;1.00
4699;DHT22;33708;49.466;11.176;2023-07-20T03:20:29;17.40;1.00
4699;DHT22;33708;49.466;11.176;2023-07-20T03:22:55;17.30;1.00
4699;DHT22;33708;49.466;11.176;2023-07-20T03:25:20;17.10;1.00
4699;DHT22;33708;49.466;11.176;2023-07-20T03:27:46;17.00;1.00
4699;DHT22;33708;49.466;11.176;2023-07-20T03:30:12;16.80;1.00
4699;DHT22;33708;49.466;11.176;2023-07-20T03:32:37;16.70;1.00
4699;DHT22;33708;49.466;11.176;2023-07-20T03:35:03;16.70;1.00
4699;DHT22;33708;49.466;11.176;2023-07-20T03:37:30;16.70;1.00
4699;DHT22;33708;49.466;11.176;2023-07-20T03:39:55;16.70;1.00
4699;DHT22;33708;49.466;11.176;2023-07-20T03:42:21;16.90;1.00
4699;DHT22;33708;49.466;11.176;2023-07-20T03:44:46;17.00;1.00
4699;DHT22;33708;49.466;11.176;2023-07-20T03:47:12;17.20;1.00
4699;DHT22;33708;49.466;11.176;2023-07-20T03:49:37;17.30;1.00
4699;DHT22;33708;49.466;11.176;2023-07-20T03:52:03;17.40;1.00
4699;DHT22;33708;49.466;11.176;2023-07-20T03:54:29;17.40;1.00
4699;DHT22;33708;49.466;11.176;2023-07-20T03:56:55;17.50;1.00
4699;DHT22;33708;49.466;11.176;2023-07-20T03:59:21;17.50;1.00
4699;DHT22;33708;49.466;11.176;2023-07-20T04:01:46;17.50;1.00
4699;DHT22;33708;49.466;11.176;2023-07-20T04:04:13;17.60;1.00
4699;DHT22;33708;49.466;11.176;2023-07-20T04:06:39;17.50;1.00
4699;DHT22;33708;49.466;11.176;2023-07-20T04:09:04;17.70;1.00
4699;DHT22;33708;49.466;11.176;2023-07-20T04:11:33;17.80;1.00
4699;DHT22;33708;49.466;11.176;2023-07-20T04:13:58;18.00;1.00
4699;DHT22;33708;49.466;11.176;2023-07-20T04:16:24;18.30;1.00
4699;DHT22;33708;49.466;11.176;2023-07-20T04:18:50;18.50;1.00
4699;DHT22;33708;49.466;11.176;2023-07-20T04:21:15;18.80;1.00
4699;DHT22;33708;49.466;11.176;2023-07-20T04:23:41;19.60;1.00
4699;DHT22;33708;49.466;11.176;2023-07-20T04:26:07;20.40;1.00
4699;DHT22;33708;49.466;11.176;2023-07-20T04:28:33;19.50;1.00
4699;DHT22;33708;49.466;11.176;2023-07-20T04:31:13;19.00;1.00
4699;DHT22;33708;49.466;11.176;2023-07-20T04:33:39;18.90;1.00
4699;DHT22;33708;49.466;11.176;2023-07-20T04:36:05;18.80;1.00
4699;DHT22;33708;49.466;11.176;2023-07-20T04:38:30;18.80;1.00
4699;DHT22;33708;49.466;11.176;2023-07-20T04:40:56;19.00;1.00
4699;DHT22;33708;49.466;11.176;2023-07-20T04:43:22;19.40;1.00
4699;DHT22;33708;49.466;11.176;2023-07-20T04:45:47;19.80;1.00
4699;DHT22;33708;49.466;11.176;2023-07-20T04:48:14;20.10;1.00
4699;DHT22;33708;49.466;11.176;2023-07-20T04:50:45;21.40;1.00
4699;DHT22;33708;49.466;11.176;2023-07-20T04:53:11;23.70;1.00
4699;DHT22;33708;49.466;11.176;2023-07-20T04:55:38;25.20;1.00
4699;DHT22;33708;49.466;11.176;2023-07-20T04:58:05;27.60;1.00
4699;DHT22;33708;49.466;11.176;2023-07-20T05:00:31;28.30;1.00
4699;DHT22;33708;49.466;11.176;2023-07-20T05:02:57;29.60;1.00
4699;DHT22;33708;49.466;11.176;2023-07-20T05:05:23;30.10;1.00
4699;DHT22;33708;49.466;11.176;2023-07-20T05:07:48;28.40;1.00
4699;DHT22;33708;49.466;11.176;2023-07-20T05:10:14;25.90;1.00
4699;DHT22;33708;49.466;11.176;2023-07-20T05:12:40;24.70;1.00
4699;DHT22;33708;49.466;11.176;2023-07-20T05:15:06;23.80;1.00
4699;DHT22;33708;49.466;11.176;2023-07-20T05:17:31;24.80;1.00
4699;DHT22;33708;49.466;11.176;2023-07-20T05:19:57;24.90;1.00
4699;DHT22;33708;49.466;11.176;2023-07-20T05:22:22;27.40;1.00
4699;DHT22;33708;49.466;11.176;2023-07-20T05:24:50;26.70;1.00
4699;DHT22;33708;49.466;11.176;2023-07-20T05:27:15;27.40;1.00
4699;DHT22;33708;49.466;11.176;2023-07-20T05:29:45;27.40;1.00
4699;DHT22;33708;49.466;11.176;2023-07-20T05:32:11;25.90;1.00
4699;DHT22;33708;49.466;11.176;2023-07-20T05:34:37;24.90;1.00
4699;DHT22;33708;49.466;11.176;2023-07-20T05:37:02;24.00;1.00
4699;DHT22;33708;49.466;11.176;2023-07-20T05:39:28;23.40;1.00
4699;DHT22;33708;49.466;11.176;2023-07-20T05:41:53;22.80;1.00
4699;DHT22;33708;49.466;11.176;2023-07-20T05:44:19;22.80;1.00
4699;DHT22;33708;49.466;11.176;2023-07-20T05:46:45;22.50;1.00
4699;DHT22;33708;49.466;11.176;2023-07-20T05:49:10;22.90;1.00
4699;DHT22;33708;49.466;11.176;2023-07-20T05:51:36;23.60;1.00
4699;DHT22;33708;49.466;11.176;2023-07-20T05:54:01;23.60;1.00
4699;DHT22;33708;49.466;11.176;2023-07-20T05:56:27;24.50;1.00
4699;DHT22;33708;49.466;11.176;2023-07-20T05:58:53;24.90;1.00
4699;DHT22;33708;49.466;11.176;2023-07-20T06:01:18;24.30;1.00
4699;DHT22;33708;49.466;11.176;2023-07-20T06:03:44;23.50;1.00
4699;DHT22;33708;49.466;11.176;2023-07-20T06:06:10;23.00;1.00
4699;DHT22;33708;49.466;11.176;2023-07-20T06:08:37;23.40;1.00
4699;DHT22;33708;49.466;11.176;2023-07-20T06:11:03;25.20;1.00
4699;DHT22;33708;49.466;11.176;2023-07-20T06:13:29;24.50;1.00
4699;DHT22;33708;49.466;11.176;2023-07-20T06:15:54;24.50;1.00
4699;DHT22;33708;49.466;11.176;2023-07-20T06:18:24;27.30;1.00
4699;DHT22;33708;49.466;11.176;2023-07-20T06:20:50;31.10;1.00
4699;DHT22;33708;49.466;11.176;2023-07-20T06:23:18;29.80;1.00
4699;DHT22;33708;49.466;11.176;2023-07-20T06:25:43;27.80;1.00
4699;DHT22;33708;49.466;11.176;2023-07-20T06:28:09;27.20;1.00
4699;DHT22;33708;49.466;11.176;2023-07-20T06:30:35;25.80;1.00
4699;DHT22;33708;49.466;11.176;2023-07-20T06:33:00;25.10;1.00
4699;DHT22;33708;49.466;11.176;2023-07-20T06:35:26;25.10;1.00
4699;DHT22;33708;49.466;11.176;2023-07-20T06:37:52;25.20;1.00
4699;DHT22;33708;49.466;11.176;2023-07-20T06:40:17;26.80;1.00
4699;DHT22;33708;49.466;11.176;2023-07-20T06:42:43;28.60;1.00
4699;DHT22;33708;49.466;11.176;2023-07-20T06:45:09;33.50;1.00
4699;DHT22;33708;49.466;11.176;2023-07-20T06:47:38;33.90;1.00
4699;DHT22;33708;49.466;11.176;2023-07-20T06:50:04;33.70;1.00
4699;DHT22;33708;49.466;11.176;2023-07-20T06:52:30;35.20;1.00
4699;DHT22;33708;49.466;11.176;2023-07-20T06:54:55;36.90;1.00
4699;DHT22;33708;49.466;11.176;2023-07-20T06:57:21;33.80;1.00
4699;DHT22;33708;49.466;11.176;2023-07-20T06:59:46;30.60;1.00
4699;DHT22;33708;49.466;11.176;2023-07-20T07:02:12;32.40;1.00
4699;DHT22;33708;49.466;11.176;2023-07-20T07:04:38;34.10;1.00
4699;DHT22;33708;49.466;11.176;2023-07-20T07:07:04;33.30;1.00
4699;DHT22;33708;49.466;11.176;2023-07-20T07:09:29;31.80;1.00
4699;DHT22;33708;49.466;11.176;2023-07-20T07:11:55;30.30;1.00
4699;DHT22;33708;49.466;11.176;2023-07-20T07:14:21;35.10;1.00
4699;DHT22;33708;49.466;11.176;2023-07-20T07:16:47;36.40;1.00
4699;DHT22;33708;49.466;11.176;2023-07-20T07:19:13;34.10;1.00
4699;DHT22;33708;49.466;11.176;2023-07-20T07:21:38;31.60;1.00
4699;DHT22;33708;49.466;11.176;2023-07-20T07:24:05;33.30;1.00
4699;DHT22;33708;49.466;11.176;2023-07-20T07:26:32;32.50;1.00
4699;DHT22;33708;49.466;11.176;2023-07-20T07:28:58;33.50;1.00
4699;DHT22;33708;49.466;11.176;2023-07-20T07:31:25;33.10;1.00
4699;DHT22;33708;49.466;11.176;2023-07-20T07:33:51;30.70;1.00
4699;DHT22;33708;49.466;11.176;2023-07-20T07:36:16;30.80;1.00
4699;DHT22;33708;49.466;11.176;2023-07-20T07:38:42;31.40;1.00
4699;DHT22;33708;49.466;11.176;2023-07-20T07:41:08;32.50;1.00
4699;DHT22;33708;49.466;11.176;2023-07-20T07:43:34;32.90;1.00
4699;DHT22;33708;49.466;11.176;2023-07-20T07:46:00;35.50;1.00
4699;DHT22;33708;49.466;11.176;2023-07-20T07:48:26;35.20;1.00
4699;DHT22;33708;49.466;11.176;2023-07-20T07:50:54;34.90;1.00
4699;DHT22;33708;49.466;11.176;2023-07-20T07:53:19;34.90;1.00
4699;DHT22;33708;49.466;11.176;2023-07-20T07:55:47;35.10;1.00
4699;DHT22;33708;49.466;11.176;2023-07-20T07:58:13;31.40;1.00
4699;DHT22;33708;49.466;11.176;2023-07-20T08:00:39;32.20;1.00
4699;DHT22;33708;49.466;11.176;2023-07-20T08:03:06;34.80;1.00
4699;DHT22;33708;49.466;11.176;2023-07-20T08:05:32;32.70;1.00
4699;DHT22;33708;49.466;11.176;2023-07-20T08:07:58;29.50;1.00
4699;DHT22;33708;49.466;11.176;2023-07-20T08:10:23;34.10;1.00
4699;DHT22;33708;49.466;11.176;2023-07-20T08:12:49;37.00;1.00
4699;DHT22;33708;49.466;11.176;2023-07-20T08:15:15;38.10;1.00
4699;DHT22;33708;49.466;11.176;2023-07-20T08:17:41;36.90;1.00
4699;DHT22;33708;49.466;11.176;2023-07-20T08:20:09;38.30;1.00
4699;DHT22;33708;49.466;11.176;2023-07-20T08:22:37;37.70;1.00
4699;DHT22;33708;49.466;11.176;2023-07-20T08:25:03;39.60;1.00
4699;DHT22;33708;49.466;11.176;2023-07-20T08:27:29;38.60;1.00
4699;DHT22;33708;49.466;11.176;2023-07-20T08:29:55;38.90;1.00
4699;DHT22;33708;49.466;11.176;2023-07-20T08:32:20;39.40;1.00
4699;DHT22;33708;49.466;11.176;2023-07-20T08:34:46;39.50;1.00
4699;DHT22;33708;49.466;11.176;2023-07-20T08:37:11;39.80;1.00
4699;DHT22;33708;49.466;11.176;2023-07-20T08:39:37;36.20;1.00
4699;DHT22;33708;49.466;11.176;2023-07-20T08:42:04;35.10;1.00
4699;DHT22;33708;49.466;11.176;2023-07-20T08:44:35;33.10;1.00
4699;DHT22;33708;49.466;11.176;2023-07-20T08:47:02;32.10;1.00
4699;DHT22;33708;49.466;11.176;2023-07-20T08:49:32;30.10;1.00
4699;DHT22;33708;49.466;11.176;2023-07-20T08:51:59;28.60;1.00
4699;DHT22;33708;49.466;11.176;2023-07-20T08:54:29;29.90;1.00
4699;DHT22;33708;49.466;11.176;2023-07-20T08:56:57;31.80;1.00
4699;DHT22;33708;49.466;11.176;2023-07-20T08:59:23;35.40;1.00
4699;DHT22;33708;49.466;11.176;2023-07-20T09:01:50;33.10;1.00
4699;DHT22;33708;49.466;11.176;2023-07-20T09:04:17;33.50;1.00
4699;DHT22;33708;49.466;11.176;2023-07-20T09:06:43;31.30;1.00
4699;DHT22;33708;49.466;11.176;2023-07-20T09:09:08;32.70;1.00
4699;DHT22;33708;49.466;11.176;2023-07-20T09:11:34;35.00;1.00
4699;DHT22;33708;49.466;11.176;2023-07-20T09:14:06;33.60;1.00
4699;DHT22;33708;49.466;11.176;2023-07-20T09:16:45;34.30;1.00
4699;DHT22;33708;49.466;11.176;2023-07-20T09:19:12;33.00;1.00
4699;DHT22;33708;49.466;11.176;2023-07-20T09:21:39;32.40;1.00
4699;DHT22;33708;49.466;11.176;2023-07-20T09:24:06;34.60;1.00
4699;DHT22;33708;49.466;11.176;2023-07-20T09:26:40;34.20;1.00
4699;DHT22;33708;49.466;11.176;2023-07-20T09:29:08;33.70;1.00
4699;DHT22;33708;49.466;11.176;2023-07-20T09:31:34;31.90;1.00
4699;DHT22;33708;49.466;11.176;2023-07-20T09:34:00;30.00;1.00
4699;DHT22;33708;49.466;11.176;2023-07-20T09:36:29;29.60;1.00
4699;DHT22;33708;49.466;11.176;2023-07-20T09:38:55;30.40;1.00
4699;DHT22;33708;49.466;11.176;2023-07-20T09:41:21;31.60;1.00
4699;DHT22;33708;49.466;11.176;2023-07-20T09:43:47;33.10;1.00
4699;DHT22;33708;49.466;11.176;2023-07-20T09:46:13;33.30;1.00
4699;DHT22;33708;49.466;11.176;2023-07-20T09:48:39;31.20;1.00
4699;DHT22;33708;49.466;11.176;2023-07-20T09:51:07;32.40;1.00
4699;DHT22;33708;49.466;11.176;2023-07-20T09:53:33;34.00;1.00
4699;DHT22;33708;49.466;11.176;2023-07-20T09:55:59;34.80;1.00
4699;DHT22;33708;49.466;11.176;2023-07-20T09:58:29;31.50;1.00
4699;DHT22;33708;49.466;11.176;2023-07-20T10:01:00;30.60;1.00
4699;DHT22;33708;49.466;11.176;2023-07-20T10:03:29;29.30;1.00
4699;DHT22;33708;49.466;11.176;2023-07-20T10:06:23;28.70;1.00
4699;DHT22;33708;49.466;11.176;2023-07-20T10:08:52;28.00;1.00
4699;DHT22;33708;49.466;11.176;2023-07-20T10:11:19;27.30;1.00
4699;DHT22;33708;49.466;11.176;2023-07-20T10:13:51;26.90;1.00
4699;DHT22;33708;49.466;11.176;2023-07-20T10:16:22;26.50;1.00
4699;DHT22;33708;49.466;11.176;2023-07-20T10:21:48;26.90;1.00
4699;DHT22;33708;49.466;11.176;2023-07-20T10:24:17;26.90;1.00
4699;DHT22;33708;49.466;11.176;2023-07-20T10:26:43;26.50;1.00
4699;DHT22;33708;49.466;11.176;2023-07-20T10:29:09;25.90;1.00
4699;DHT22;33708;49.466;11.176;2023-07-20T10:31:37;26.10;1.00
4699;DHT22;33708;49.466;11.176;2023-07-20T10:34:02;26.20;1.00
4699;DHT22;33708;49.466;11.176;2023-07-20T10:36:28;26.60;1.00
4699;DHT22;33708;49.466;11.176;2023-07-20T10:38:55;26.40;1.00
4699;DHT22;33708;49.466;11.176;2023-07-20T10:41:48;26.00;1.00
4699;DHT22;33708;49.466;11.176;2023-07-20T10:44:19;26.40;1.00
4699;DHT22;33708;49.466;11.176;2023-07-20T10:46:46;26.20;1.00
4699;DHT22;33708;49.466;11.176;2023-07-20T10:49:13;26.40;1.00
4699;DHT22;33708;49.466;11.176;2023-07-20T10:51:47;26.30;1.00
4699;DHT22;33708;49.466;11.176;2023-07-20T10:56:42;25.60;1.00
4699;DHT22;33708;49.466;11.176;2023-07-20T10:59:18;25.80;1.00
4699;DHT22;33708;49.466;11.176;2023-07-20T11:01:47;25.70;1.00
4699;DHT22;33708;49.466;11.176;2023-07-20T11:04:15;26.00;1.00
4699;DHT22;33708;49.466;11.176;2023-07-20T11:06:45;25.80;1.00
4699;DHT22;33708;49.466;11.176;2023-07-20T11:09:14;26.30;1.00
4699;DHT22;33708;49.466;11.176;2023-07-20T11:11:47;26.60;1.00
4699;DHT22;33708;49.466;11.176;2023-07-20T11:14:23;26.80;1.00
4699;DHT22;33708;49.466;11.176;2023-07-20T11:16:50;27.10;1.00
4699;DHT22;33708;49.466;11.176;2023-07-20T11:21:49;27.00;1.00
4699;DHT22;33708;49.466;11.176;2023-07-20T11:24:15;26.60;1.00
4699;DHT22;33708;49.466;11.176;2023-07-20T11:26:49;26.60;1.00
4699;DHT22;33708;49.466;11.176;2023-07-20T11:29:19;27.10;1.00
4699;DHT22;33708;49.466;11.176;2023-07-20T11:31:46;27.30;1.00
4699;DHT22;33708;49.466;11.176;2023-07-20T11:34:20;27.30;1.00
4699;DHT22;33708;49.466;11.176;2023-07-20T11:36:50;27.50;1.00
4699;DHT22;33708;49.466;11.176;2023-07-20T11:39:21;27.50;1.00
4699;DHT22;33708;49.466;11.176;2023-07-20T11:41:51;27.50;1.00
4699;DHT22;33708;49.466;11.176;2023-07-20T11:44:21;27.50;1.00
4699;DHT22;33708;49.466;11.176;2023-07-20T11:47:10;27.60;1.00
4699;DHT22;33708;49.466;11.176;2023-07-20T11:49:37;27.50;1.00
4699;DHT22;33708;49.466;11.176;2023-07-20T11:52:15;27.20;1.00
4699;DHT22;33708;49.466;11.176;2023-07-20T11:54:42;26.60;1.00
4699;DHT22;33708;49.466;11.176;2023-07-20T11:57:16;26.70;1.00
4699;DHT22;33708;49.466;11.176;2023-07-20T11:59:56;27.30;1.00
4699;DHT22;33708;49.466;11.176;2023-07-20T12:02:23;27.70;1.00
4699;DHT22;33708;49.466;11.176;2023-07-20T12:04:51;27.90;1.00
4699;DHT22;33708;49.466;11.176;2023-07-20T12:07:18;28.10;1.00
4699;DHT22;33708;49.466;11.176;2023-07-20T12:09:44;28.20;1.00
4699;DHT22;33708;49.466;11.176;2023-07-20T12:12:11;28.50;1.00
4699;DHT22;33708;49.466;11.176;2023-07-20T12:14:37;29.10;1.00
4699;DHT22;33708;49.466;11.176;2023-07-20T12:17:03;28.70;1.00
4699;DHT22;33708;49.466;11.176;2023-07-20T12:19:28;29.00;1.00
4699;DHT22;33708;49.466;11.176;2023-07-20T12:21:58;29.20;1.00
4699;DHT22;33708;49.466;11.176;2023-07-20T12:24:27;29.30;1.00
4699;DHT22;33708;49.466;11.176;2023-07-20T12:26:56;28.20;1.00
4699;DHT22;33708;49.466;11.176;2023-07-20T12:29:23;28.80;1.00
4699;DHT22;33708;49.466;11.176;2023-07-20T12:31:49;28.90;1.00
4699;DHT22;33708;49.466;11.176;2023-07-20T12:34:14;29.20;1.00
4699;DHT22;33708;49.466;11.176;2023-07-20T12:36:40;28.90;1.00
4699;DHT22;33708;49.466;11.176;2023-07-20T12:39:06;28.10;1.00
4699;DHT22;33708;49.466;11.176;2023-07-20T12:41:31;28.50;1.00
4699;DHT22;33708;49.466;11.176;2023-07-20T12:43:57;27.70;1.00
4699;DHT22;33708;49.466;11.176;2023-07-20T12:46:24;27.00;1.00
4699;DHT22;33708;49.466;11.176;2023-07-20T12:48:49;27.40;1.00
4699;DHT22;33708;49.466;11.176;2023-07-20T12:51:15;28.20;1.00
4699;DHT22;33708;49.466;11.176;2023-07-20T12:53:41;28.10;1.00
4699;DHT22;33708;49.466;11.176;2023-07-20T12:56:06;28.60;1.00
4699;DHT22;33708;49.466;11.176;2023-07-20T12:58:32;28.10;1.00
4699;DHT22;33708;49.466;11.176;2023-07-20T13:00:58;27.70;1.00
4699;DHT22;33708;49.466;11.176;2023-07-20T13:03:23;27.60;1.00
4699;DHT22;33708;49.466;11.176;2023-07-20T13:05:49;28.00;1.00
4699;DHT22;33708;49.466;11.176;2023-07-20T13:08:16;28.10;1.00
4699;DHT22;33708;49.466;11.176;2023-07-20T13:10:42;28.70;1.00
4699;DHT22;33708;49.466;11.176;2023-07-20T13:13:08;29.40;1.00
4699;DHT22;33708;49.466;11.176;2023-07-20T13:15:44;27.90;1.00
4699;DHT22;33708;49.466;11.176;2023-07-20T13:18:10;27.80;1.00
4699;DHT22;33708;49.466;11.176;2023-07-20T13:20:35;27.60;1.00
4699;DHT22;33708;49.466;11.176;2023-07-20T13:23:01;27.80;1.00
4699;DHT22;33708;49.466;11.176;2023-07-20T13:25:27;27.90;1.00
4699;DHT22;33708;49.466;11.176;2023-07-20T13:27:53;28.00;1.00
4699;DHT22;33708;49.466;11.176;2023-07-20T13:30:19;28.40;1.00
4699;DHT22;33708;49.466;11.176;2023-07-20T13:32:46;28.80;1.00
4699;DHT22;33708;49.466;11.176;2023-07-20T13:35:12;29.00;1.00
4699;DHT22;33708;49.466;11.176;2023-07-20T13:37:38;28.50;1.00
4699;DHT22;33708;49.466;11.176;2023-07-20T13:40:04;28.20;1.00
4699;DHT22;33708;49.466;11.176;2023-07-20T13:42:37;28.10;1.00
4699;DHT22;33708;49.466;11.176;2023-07-20T13:45:03;28.40;1.00
4699;DHT22;33708;49.466;11.176;2023-07-20T13:47:29;28.60;1.00
4699;DHT22;33708;49.466;11.176;2023-07-20T13:49:54;28.70;1.00
4699;DHT22;33708;49.466;11.176;2023-07-20T13:52:21;28.90;1.00
4699;DHT22;33708;49.466;11.176;2023-07-20T13:54:46;29.10;1.00
4699;DHT22;33708;49.466;11.176;2023-07-20T13:57:12;29.20;1.00
4699;DHT22;33708;49.466;11.176;2023-07-20T13:59:38;29.40;1.00
4699;DHT22;33708;49.466;11.176;2023-07-20T14:02:04;29.20;1.00
4699;DHT22;33708;49.466;11.176;2023-07-20T14:04:29;28.40;1.00
4699;DHT22;33708;49.466;11.176;2023-07-20T14:06:55;29.10;1.00
4699;DHT22;33708;49.466;11.176;2023-07-20T14:09:21;28.40;1.00
4699;DHT22;33708;49.466;11.176;2023-07-20T14:11:46;27.40;1.00
4699;DHT22;33708;49.466;11.176;2023-07-20T14:14:12;26.90;1.00
4699;DHT22;33708;49.466;11.176;2023-07-20T14:16:37;26.60;1.00
4699;DHT22;33708;49.466;11.176;2023-07-20T14:19:03;26.00;1.00
4699;DHT22;33708;49.466;11.176;2023-07-20T14:21:30;26.30;1.00
4699;DHT22;33708;49.466;11.176;2023-07-20T14:23:56;26.40;1.00
4699;DHT22;33708;49.466;11.176;2023-07-20T14:26:23;26.50;1.00
4699;DHT22;33708;49.466;11.176;2023-07-20T14:28:49;27.30;1.00
4699;DHT22;33708;49.466;11.176;2023-07-20T14:31:14;28.40;1.00
4699;DHT22;33708;49.466;11.176;2023-07-20T14:33:40;29.00;1.00
4699;DHT22;33708;49.466;11.176;2023-07-20T14:36:05;28.80;1.00
4699;DHT22;33708;49.466;11.176;2023-07-20T14:38:33;28.70;1.00
4699;DHT22;33708;49.466;11.176;2023-07-20T14:40:58;28.60;1.00
4699;DHT22;33708;49.466;11.176;2023-07-20T14:43:24;28.90;1.00
4699;DHT22;33708;49.466;11.176;2023-07-20T14:45:50;28.90;1.00
4699;DHT22;33708;49.466;11.176;2023-07-20T14:48:15;28.90;1.00
4699;DHT22;33708;49.466;11.176;2023-07-20T14:50:41;28.20;1.00
4699;DHT22;33708;49.466;11.176;2023-07-20T14:53:07;28.20;1.00
4699;DHT22;33708;49.466;11.176;2023-07-20T14:55:33;27.80;1.00
4699;DHT22;33708;49.466;11.176;2023-07-20T14:57:59;27.60;1.00
4699;DHT22;33708;49.466;11.176;2023-07-20T15:00:25;27.20;1.00
4699;DHT22;33708;49.466;11.176;2023-07-20T15:02:51;27.70;1.00
4699;DHT22;33708;49.466;11.176;2023-07-20T15:05:22;27.90;1.00
4699;DHT22;33708;49.466;11.176;2023-07-20T15:07:48;28.10;1.00
4699;DHT22;33708;49.466;11.176;2023-07-20T15:10:14;28.20;1.00
4699;DHT22;33708;49.466;11.176;2023-07-20T15:12:40;28.30;1.00
4699;DHT22;33708;49.466;11.176;2023-07-20T15:15:07;28.10;1.00
4699;DHT22;33708;49.466;11.176;2023-07-20T15:17:34;27.70;1.00
4699;DHT22;33708;49.466;11.176;2023-07-20T15:20:00;27.30;1.00
4699;DHT22;33708;49.466;11.176;2023-07-20T15:22:26;27.00;1.00
4699;DHT22;33708;49.466;11.176;2023-07-20T15:24:51;27.40;1.00
4699;DHT22;33708;49.466;11.176;2023-07-20T15:27:17;27.50;1.00
4699;DHT22;33708;49.466;11.176;2023-07-20T15:29:42;27.70;1.00
4699;DHT22;33708;49.466;11.176;2023-07-20T15:32:09;27.70;1.00
4699;DHT22;33708;49.466;11.176;2023-07-20T15:34:35;28.00;1.00
4699;DHT22;33708;49.466;11.176;2023-07-20T15:37:01;27.40;1.00
4699;DHT22;33708;49.466;11.176;2023-07-20T15:39:27;27.10;1.00
4699;DHT22;33708;49.466;11.176;2023-07-20T15:41:52;27.60;1.00
4699;DHT22;33708;49.466;11.176;2023-07-20T15:44:18;27.50;1.00
4699;DHT22;33708;49.466;11.176;2023-07-20T15:46:46;27.40;1.00
4699;DHT22;33708;49.466;11.176;2023-07-20T15:49:12;27.50;1.00
4699;DHT22;33708;49.466;11.176;2023-07-20T15:51:38;27.50;1.00
4699;DHT22;33708;49.466;11.176;2023-07-20T15:54:07;27.30;1.00
4699;DHT22;33708;49.466;11.176;2023-07-20T15:56:33;27.40;1.00
4699;DHT22;33708;49.466;11.176;2023-07-20T15:58:59;27.50;1.00
4699;DHT22;33708;49.466;11.176;2023-07-20T16:01:25;27.10;1.00
4699;DHT22;33708;49.466;11.176;2023-07-20T16:03:51;26.80;1.00